Авиационная погода в Лаппеэнранта

Регион: 
Погода METAR: 
EFLP 301350Z AUTO 13006KT 100V170 9999 -SHSN BKN003 OVC028 00/M00 Q1018
Время наблюдения
2020-11-30T13:50:00Z
Температура C
0.0
Точка росы
0.0
Направление ветра
130
Скорость ветра (узлы)
6
Метео видимость
6.21
Явления погоды
-SHSN
Условия полета
LIFR